sensor_id;sensor_type;location;lat;lon;timestamp;pressure;altitude;pressure_sealevel;temperature;humidity
60589;BME280;46421;48.610;9.334;2022-07-05T00:01:04;98338.94;;;17.06;85.96
60589;BME280;46421;48.610;9.334;2022-07-05T00:03:29;98342.25;;;16.68;88.53
60589;BME280;46421;48.610;9.334;2022-07-05T00:05:55;98336.50;;;16.44;89.53
60589;BME280;46421;48.610;9.334;2022-07-05T00:08:21;98332.78;;;16.46;89.74
60589;BME280;46421;48.610;9.334;2022-07-05T00:10:46;98333.63;;;16.33;90.96
60589;BME280;46421;48.610;9.334;2022-07-05T00:13:12;98326.41;;;16.20;92.53
60589;BME280;46421;48.610;9.334;2022-07-05T00:15:37;98328.22;;;16.53;90.71
60589;BME280;46421;48.610;9.334;2022-07-05T00:18:02;98331.72;;;16.67;91.02
60589;BME280;46421;48.610;9.334;2022-07-05T00:20:28;98330.44;;;17.03;88.74
60589;BME280;46421;48.610;9.334;2022-07-05T00:22:53;98332.63;;;17.33;87.13
60589;BME280;46421;48.610;9.334;2022-07-05T00:25:18;98334.31;;;17.27;85.33
60589;BME280;46421;48.610;9.334;2022-07-05T00:27:44;98334.75;;;17.17;86.55
60589;BME280;46421;48.610;9.334;2022-07-05T00:30:10;98336.63;;;17.10;85.35
60589;BME280;46421;48.610;9.334;2022-07-05T00:32:36;98344.53;;;16.78;87.49
60589;BME280;46421;48.610;9.334;2022-07-05T00:35:02;98332.78;;;16.46;89.13
60589;BME280;46421;48.610;9.334;2022-07-05T00:37:27;98325.75;;;16.65;89.07
60589;BME280;46421;48.610;9.334;2022-07-05T00:39:53;98324.31;;;16.62;89.91
60589;BME280;46421;48.610;9.334;2022-07-05T00:42:18;98330.25;;;17.04;88.41
60589;BME280;46421;48.610;9.334;2022-07-05T00:44:43;98320.53;;;17.56;85.12
60589;BME280;46421;48.610;9.334;2022-07-05T00:47:10;98325.09;;;17.87;81.27
60589;BME280;46421;48.610;9.334;2022-07-05T00:49:36;98329.41;;;17.56;84.41
60589;BME280;46421;48.610;9.334;2022-07-05T00:52:03;98332.38;;;17.80;81.21
60589;BME280;46421;48.610;9.334;2022-07-05T00:54:33;98326.25;;;17.20;84.53
60589;BME280;46421;48.610;9.334;2022-07-05T00:57:00;98328.25;;;16.59;86.05
60589;BME280;46421;48.610;9.334;2022-07-05T00:59:28;98339.81;;;16.40;89.38
60589;BME280;46421;48.610;9.334;2022-07-05T01:01:54;98339.34;;;16.90;86.58
60589;BME280;46421;48.610;9.334;2022-07-05T01:04:19;98334.75;;;17.63;83.52
60589;BME280;46421;48.610;9.334;2022-07-05T01:06:47;98341.00;;;17.57;81.06
60589;BME280;46421;48.610;9.334;2022-07-05T01:09:14;98339.34;;;16.83;85.29
60589;BME280;46421;48.610;9.334;2022-07-05T01:11:41;98338.78;;;16.48;86.70
60589;BME280;46421;48.610;9.334;2022-07-05T01:14:08;98334.03;;;16.16;88.30
60589;BME280;46421;48.610;9.334;2022-07-05T01:16:33;98336.88;;;15.94;91.96
60589;BME280;46421;48.610;9.334;2022-07-05T01:18:58;98334.84;;;16.17;90.85
60589;BME280;46421;48.610;9.334;2022-07-05T01:21:26;98327.81;;;16.76;86.83
60589;BME280;46421;48.610;9.334;2022-07-05T01:23:52;98332.81;;;16.39;87.08
60589;BME280;46421;48.610;9.334;2022-07-05T01:26:18;98336.69;;;16.56;86.60
60589;BME280;46421;48.610;9.334;2022-07-05T01:28:44;98339.78;;;16.67;85.65
60589;BME280;46421;48.610;9.334;2022-07-05T01:31:09;98338.94;;;17.00;84.51
60589;BME280;46421;48.610;9.334;2022-07-05T01:33:34;98339.53;;;16.88;84.79
60589;BME280;46421;48.610;9.334;2022-07-05T01:36:00;98342.69;;;16.58;86.95
60589;BME280;46421;48.610;9.334;2022-07-05T01:38:25;98334.22;;;16.55;86.47
60589;BME280;46421;48.610;9.334;2022-07-05T01:40:51;98337.31;;;15.98;87.30
60589;BME280;46421;48.610;9.334;2022-07-05T01:43:16;98335.03;;;15.95;88.45
60589;BME280;46421;48.610;9.334;2022-07-05T01:45:43;98343.91;;;15.95;88.06
60589;BME280;46421;48.610;9.334;2022-07-05T01:48:12;98341.84;;;15.98;89.72
60589;BME280;46421;48.610;9.334;2022-07-05T01:50:42;98349.31;;;16.22;88.97
60589;BME280;46421;48.610;9.334;2022-07-05T01:55:52;98352.78;;;16.83;83.63
60589;BME280;46421;48.610;9.334;2022-07-05T01:58:18;98349.06;;;16.57;83.80
60589;BME280;46421;48.610;9.334;2022-07-05T02:00:45;98347.06;;;16.33;85.08
60589;BME280;46421;48.610;9.334;2022-07-05T02:03:11;98348.44;;;15.88;87.41
60589;BME280;46421;48.610;9.334;2022-07-05T02:05:36;98343.97;;;15.54;89.56
60589;BME280;46421;48.610;9.334;2022-07-05T02:08:02;98351.13;;;15.40;89.49
60589;BME280;46421;48.610;9.334;2022-07-05T02:10:27;98348.97;;;15.15;91.61
60589;BME280;46421;48.610;9.334;2022-07-05T02:12:52;98345.88;;;15.18;93.12
60589;BME280;46421;48.610;9.334;2022-07-05T02:15:18;98340.88;;;15.50;91.65
60589;BME280;46421;48.610;9.334;2022-07-05T02:17:43;98341.97;;;15.62;90.79
60589;BME280;46421;48.610;9.334;2022-07-05T02:20:09;98342.88;;;15.90;90.07
60589;BME280;46421;48.610;9.334;2022-07-05T02:22:34;98349.72;;;16.39;87.81
60589;BME280;46421;48.610;9.334;2022-07-05T02:24:59;98346.41;;;16.51;86.17
60589;BME280;46421;48.610;9.334;2022-07-05T02:27:25;98344.34;;;16.59;85.40
60589;BME280;46421;48.610;9.334;2022-07-05T02:29:50;98335.25;;;16.60;84.19
60589;BME280;46421;48.610;9.334;2022-07-05T02:32:15;98340.41;;;16.42;84.44
60589;BME280;46421;48.610;9.334;2022-07-05T02:34:41;98345.16;;;16.13;86.08
60589;BME280;46421;48.610;9.334;2022-07-05T02:37:06;98345.59;;;16.30;88.07
60589;BME280;46421;48.610;9.334;2022-07-05T02:39:31;98347.84;;;16.26;84.99
60589;BME280;46421;48.610;9.334;2022-07-05T02:41:56;98339.81;;;16.20;87.81
60589;BME280;46421;48.610;9.334;2022-07-05T02:44:22;98343.31;;;16.20;87.96
60589;BME280;46421;48.610;9.334;2022-07-05T02:46:47;98343.91;;;16.76;82.84
60589;BME280;46421;48.610;9.334;2022-07-05T02:49:12;98345.78;;;16.49;85.20
60589;BME280;46421;48.610;9.334;2022-07-05T02:51:37;98345.19;;;16.33;85.63
60589;BME280;46421;48.610;9.334;2022-07-05T02:54:03;98345.16;;;16.00;86.08
60589;BME280;46421;48.610;9.334;2022-07-05T02:56:28;98348.34;;;15.61;86.84
60589;BME280;46421;48.610;9.334;2022-07-05T02:58:53;98352.75;;;15.27;90.12
60589;BME280;46421;48.610;9.334;2022-07-05T03:01:19;98352.53;;;15.22;91.68
60589;BME280;46421;48.610;9.334;2022-07-05T03:03:44;98345.84;;;15.53;89.06
60589;BME280;46421;48.610;9.334;2022-07-05T03:06:09;98355.53;;;15.54;89.74
60589;BME280;46421;48.610;9.334;2022-07-05T03:08:34;98351.84;;;15.62;89.15
60589;BME280;46421;48.610;9.334;2022-07-05T03:11:00;98353.91;;;15.67;89.82
60589;BME280;46421;48.610;9.334;2022-07-05T03:13:25;98348.88;;;15.99;85.20
60589;BME280;46421;48.610;9.334;2022-07-05T03:15:50;98359.19;;;16.15;85.46
60589;BME280;46421;48.610;9.334;2022-07-05T03:18:15;98360.22;;;16.27;83.02
60589;BME280;46421;48.610;9.334;2022-07-05T03:20:41;98360.19;;;15.94;84.90
60589;BME280;46421;48.610;9.334;2022-07-05T03:23:06;98364.28;;;15.28;85.85
60589;BME280;46421;48.610;9.334;2022-07-05T03:25:32;98362.88;;;14.97;87.72
60589;BME280;46421;48.610;9.334;2022-07-05T03:27:57;98369.38;;;14.81;90.53
60589;BME280;46421;48.610;9.334;2022-07-05T03:30:23;98372.81;;;15.03;91.12
60589;BME280;46421;48.610;9.334;2022-07-05T03:32:48;98369.69;;;15.41;88.48
60589;BME280;46421;48.610;9.334;2022-07-05T03:35:13;98377.66;;;15.76;85.70
60589;BME280;46421;48.610;9.334;2022-07-05T03:37:39;98362.91;;;16.01;85.65
60589;BME280;46421;48.610;9.334;2022-07-05T03:40:04;98371.19;;;16.33;83.94
60589;BME280;46421;48.610;9.334;2022-07-05T03:42:30;98379.63;;;16.16;83.70
60589;BME280;46421;48.610;9.334;2022-07-05T03:44:55;98375.69;;;16.25;84.48
60589;BME280;46421;48.610;9.334;2022-07-05T03:47:21;98377.75;;;16.17;85.15
60589;BME280;46421;48.610;9.334;2022-07-05T03:49:46;98384.56;;;16.19;84.87
60589;BME280;46421;48.610;9.334;2022-07-05T03:52:11;98381.09;;;16.39;84.99
60589;BME280;46421;48.610;9.334;2022-07-05T03:54:37;98391.19;;;16.50;84.80
60589;BME280;46421;48.610;9.334;2022-07-05T03:57:02;98388.50;;;16.37;83.79
60589;BME280;46421;48.610;9.334;2022-07-05T03:59:27;98393.47;;;16.20;85.64
60589;BME280;46421;48.610;9.334;2022-07-05T04:01:53;98398.81;;;16.20;84.18
60589;BME280;46421;48.610;9.334;2022-07-05T04:04:18;98400.47;;;16.21;83.85
60589;BME280;46421;48.610;9.334;2022-07-05T04:06:43;98403.78;;;16.16;83.38
60589;BME280;46421;48.610;9.334;2022-07-05T04:09:09;98403.22;;;15.79;84.63
60589;BME280;46421;48.610;9.334;2022-07-05T04:11:34;98398.78;;;15.51;85.66
60589;BME280;46421;48.610;9.334;2022-07-05T04:13:59;98403.69;;;15.41;86.98
60589;BME280;46421;48.610;9.334;2022-07-05T04:16:24;98406.03;;;15.57;87.25
60589;BME280;46421;48.610;9.334;2022-07-05T04:18:50;98405.03;;;15.65;87.58
60589;BME280;46421;48.610;9.334;2022-07-05T04:21:15;98400.59;;;15.86;86.44
60589;BME280;46421;48.610;9.334;2022-07-05T04:23:40;98403.47;;;15.84;85.37
60589;BME280;46421;48.610;9.334;2022-07-05T04:26:06;98406.91;;;15.71;87.42
60589;BME280;46421;48.610;9.334;2022-07-05T04:28:31;98411.94;;;15.88;86.98
60589;BME280;46421;48.610;9.334;2022-07-05T04:30:57;98411.56;;;16.11;86.22
60589;BME280;46421;48.610;9.334;2022-07-05T04:33:23;98410.38;;;16.27;85.76
60589;BME280;46421;48.610;9.334;2022-07-05T04:35:48;98413.69;;;16.49;84.67
60589;BME280;46421;48.610;9.334;2022-07-05T04:38:13;98417.41;;;16.68;84.48
60589;BME280;46421;48.610;9.334;2022-07-05T04:40:39;98409.78;;;16.65;85.17
60589;BME280;46421;48.610;9.334;2022-07-05T04:43:04;98424.25;;;16.71;86.42
60589;BME280;46421;48.610;9.334;2022-07-05T04:45:29;98419.50;;;16.66;86.57
60589;BME280;46421;48.610;9.334;2022-07-05T04:47:54;98421.94;;;16.61;87.23
60589;BME280;46421;48.610;9.334;2022-07-05T04:50:20;98420.91;;;16.62;88.02
60589;BME280;46421;48.610;9.334;2022-07-05T04:52:45;98424.84;;;16.86;86.86
60589;BME280;46421;48.610;9.334;2022-07-05T04:55:10;98427.34;;;16.74;87.31
60589;BME280;46421;48.610;9.334;2022-07-05T04:57:40;98425.47;;;16.75;87.77
60589;BME280;46421;48.610;9.334;2022-07-05T05:00:06;98427.53;;;16.86;87.71
60589;BME280;46421;48.610;9.334;2022-07-05T05:02:32;98429.63;;;17.04;87.52
60589;BME280;46421;48.610;9.334;2022-07-05T05:04:57;98430.41;;;17.25;86.08
60589;BME280;46421;48.610;9.334;2022-07-05T05:07:23;98433.06;;;17.32;84.78
60589;BME280;46421;48.610;9.334;2022-07-05T05:09:48;98435.06;;;17.57;83.10
60589;BME280;46421;48.610;9.334;2022-07-05T05:12:13;98436.03;;;17.76;81.47
60589;BME280;46421;48.610;9.334;2022-07-05T05:14:38;98433.75;;;17.79;81.78
60589;BME280;46421;48.610;9.334;2022-07-05T05:17:04;98435.19;;;17.82;81.66
60589;BME280;46421;48.610;9.334;2022-07-05T05:19:29;98427.16;;;17.68;82.34
60589;BME280;46421;48.610;9.334;2022-07-05T05:21:54;98434.41;;;17.68;82.83
60589;BME280;46421;48.610;9.334;2022-07-05T05:24:20;98436.53;;;17.46;85.47
60589;BME280;46421;48.610;9.334;2022-07-05T05:26:45;98433.44;;;17.42;85.12
60589;BME280;46421;48.610;9.334;2022-07-05T05:29:10;98439.53;;;16.97;87.75
60589;BME280;46421;48.610;9.334;2022-07-05T05:31:35;98430.66;;;16.70;88.48
60589;BME280;46421;48.610;9.334;2022-07-05T05:34:01;98433.09;;;16.65;89.47
60589;BME280;46421;48.610;9.334;2022-07-05T05:36:26;98441.16;;;16.78;87.58
60589;BME280;46421;48.610;9.334;2022-07-05T05:38:51;98443.66;;;16.86;88.45
60589;BME280;46421;48.610;9.334;2022-07-05T05:41:17;98445.28;;;17.14;84.86
60589;BME280;46421;48.610;9.334;2022-07-05T05:43:42;98446.06;;;17.35;84.08
60589;BME280;46421;48.610;9.334;2022-07-05T05:46:07;98446.69;;;17.37;81.77
60589;BME280;46421;48.610;9.334;2022-07-05T05:48:33;98441.94;;;17.39;80.45
60589;BME280;46421;48.610;9.334;2022-07-05T05:50:58;98458.00;;;17.59;80.63
60589;BME280;46421;48.610;9.334;2022-07-05T05:53:23;98466.13;;;17.39;82.65
60589;BME280;46421;48.610;9.334;2022-07-05T05:55:48;98453.50;;;17.46;82.69
60589;BME280;46421;48.610;9.334;2022-07-05T05:58:21;98455.94;;;17.54;80.24
60589;BME280;46421;48.610;9.334;2022-07-05T06:00:47;98462.34;;;17.60;81.57
60589;BME280;46421;48.610;9.334;2022-07-05T06:03:13;98462.69;;;17.84;79.09
60589;BME280;46421;48.610;9.334;2022-07-05T06:05:38;98469.50;;;17.80;77.35
60589;BME280;46421;48.610;9.334;2022-07-05T06:08:04;98472.31;;;18.05;77.19
60589;BME280;46421;48.610;9.334;2022-07-05T06:10:31;98465.19;;;18.24;77.21
60589;BME280;46421;48.610;9.334;2022-07-05T06:12:58;98462.63;;;18.68;74.63
60589;BME280;46421;48.610;9.334;2022-07-05T06:15:23;98470.06;;;18.98;71.54
60589;BME280;46421;48.610;9.334;2022-07-05T06:17:49;98468.13;;;18.80;71.19
60589;BME280;46421;48.610;9.334;2022-07-05T06:20:17;98469.63;;;19.01;69.22
60589;BME280;46421;48.610;9.334;2022-07-05T06:22:44;98471.19;;;18.84;70.25
60589;BME280;46421;48.610;9.334;2022-07-05T06:25:09;98475.47;;;18.98;69.29
60589;BME280;46421;48.610;9.334;2022-07-05T06:27:42;98480.28;;;19.40;69.44
60589;BME280;46421;48.610;9.334;2022-07-05T06:30:08;98475.38;;;19.30;67.21
60589;BME280;46421;48.610;9.334;2022-07-05T06:32:34;98477.22;;;19.11;68.67
60589;BME280;46421;48.610;9.334;2022-07-05T06:34:59;98478.41;;;19.78;67.49
60589;BME280;46421;48.610;9.334;2022-07-05T06:37:24;98472.91;;;20.03;66.02
60589;BME280;46421;48.610;9.334;2022-07-05T06:39:50;98476.75;;;20.14;63.94
60589;BME280;46421;48.610;9.334;2022-07-05T06:42:15;98481.84;;;20.64;63.58
60589;BME280;46421;48.610;9.334;2022-07-05T06:44:40;98485.69;;;21.23;60.71
60589;BME280;46421;48.610;9.334;2022-07-05T06:47:05;98479.34;;;21.64;60.01
60589;BME280;46421;48.610;9.334;2022-07-05T06:49:31;98487.66;;;21.87;60.94
60589;BME280;46421;48.610;9.334;2022-07-05T06:51:56;98485.69;;;22.11;56.92
60589;BME280;46421;48.610;9.334;2022-07-05T06:54:21;98491.84;;;22.64;54.11
60589;BME280;46421;48.610;9.334;2022-07-05T06:56:47;98490.53;;;24.46;50.65
60589;BME280;46421;48.610;9.334;2022-07-05T06:59:12;98490.31;;;24.75;49.73
60589;BME280;46421;48.610;9.334;2022-07-05T07:01:37;98491.09;;;23.76;49.74
60589;BME280;46421;48.610;9.334;2022-07-05T07:04:03;98498.22;;;23.21;52.90
60589;BME280;46421;48.610;9.334;2022-07-05T07:06:28;98495.66;;;22.22;52.91
60589;BME280;46421;48.610;9.334;2022-07-05T07:08:53;98487.59;;;22.85;53.74
60589;BME280;46421;48.610;9.334;2022-07-05T07:11:18;98490.53;;;22.84;57.36
60589;BME280;46421;48.610;9.334;2022-07-05T07:13:44;98492.22;;;22.27;50.97
60589;BME280;46421;48.610;9.334;2022-07-05T07:16:09;98486.84;;;23.07;55.04
60589;BME280;46421;48.610;9.334;2022-07-05T07:18:34;98489.47;;;22.85;51.74
60589;BME280;46421;48.610;9.334;2022-07-05T07:21:00;98486.06;;;23.63;51.20
60589;BME280;46421;48.610;9.334;2022-07-05T07:23:25;98489.56;;;25.17;47.84
60589;BME280;46421;48.610;9.334;2022-07-05T07:25:50;98491.03;;;27.35;39.06
60589;BME280;46421;48.610;9.334;2022-07-05T07:28:15;98493.97;;;29.68;36.08
60589;BME280;46421;48.610;9.334;2022-07-05T07:30:41;98494.47;;;30.76;33.76
60589;BME280;46421;48.610;9.334;2022-07-05T07:33:06;98497.09;;;31.47;33.03
60589;BME280;46421;48.610;9.334;2022-07-05T07:35:31;98499.28;;;31.64;32.58
60589;BME280;46421;48.610;9.334;2022-07-05T07:37:57;98495.28;;;31.57;32.02
60589;BME280;46421;48.610;9.334;2022-07-05T07:40:22;98501.31;;;29.97;33.92
60589;BME280;46421;48.610;9.334;2022-07-05T07:42:47;98506.72;;;30.46;32.19
60589;BME280;46421;48.610;9.334;2022-07-05T07:45:12;98505.25;;;31.38;30.72
60589;BME280;46421;48.610;9.334;2022-07-05T07:47:38;98506.34;;;30.90;31.73
60589;BME280;46421;48.610;9.334;2022-07-05T07:50:04;98505.66;;;30.41;31.49
60589;BME280;46421;48.610;9.334;2022-07-05T07:52:30;98503.38;;;31.20;30.62
60589;BME280;46421;48.610;9.334;2022-07-05T07:54:55;98510.31;;;31.31;34.27
60589;BME280;46421;48.610;9.334;2022-07-05T07:57:21;98500.41;;;32.05;31.95
60589;BME280;46421;48.610;9.334;2022-07-05T07:59:46;98514.22;;;32.14;29.75
60589;BME280;46421;48.610;9.334;2022-07-05T08:02:11;98506.63;;;32.47;30.50
60589;BME280;46421;48.610;9.334;2022-07-05T08:04:37;98505.56;;;31.51;28.94
60589;BME280;46421;48.610;9.334;2022-07-05T08:07:02;98505.84;;;31.35;30.20
60589;BME280;46421;48.610;9.334;2022-07-05T08:09:27;98505.75;;;33.20;28.42
60589;BME280;46421;48.610;9.334;2022-07-05T08:11:53;98508.38;;;34.06;27.87
60589;BME280;46421;48.610;9.334;2022-07-05T08:14:18;98511.25;;;34.59;30.93
60589;BME280;46421;48.610;9.334;2022-07-05T08:16:46;98511.06;;;34.38;26.71
60589;BME280;46421;48.610;9.334;2022-07-05T08:19:11;98510.94;;;33.53;27.15
60589;BME280;46421;48.610;9.334;2022-07-05T08:21:37;98509.53;;;33.65;27.43
60589;BME280;46421;48.610;9.334;2022-07-05T08:24:07;98509.66;;;34.00;29.01
60589;BME280;46421;48.610;9.334;2022-07-05T08:26:33;98508.78;;;34.48;25.70
60589;BME280;46421;48.610;9.334;2022-07-05T08:28:59;98509.28;;;34.77;25.91
60589;BME280;46421;48.610;9.334;2022-07-05T08:31:27;98501.28;;;33.33;27.22
60589;BME280;46421;48.610;9.334;2022-07-05T08:33:52;98498.84;;;31.57;29.35
60589;BME280;46421;48.610;9.334;2022-07-05T08:36:18;98500.31;;;31.68;29.57
60589;BME280;46421;48.610;9.334;2022-07-05T08:38:43;98507.22;;;32.58;29.85
60589;BME280;46421;48.610;9.334;2022-07-05T08:41:10;98493.72;;;34.90;31.11
60589;BME280;46421;48.610;9.334;2022-07-05T08:43:39;98499.22;;;33.79;27.59
60589;BME280;46421;48.610;9.334;2022-07-05T08:46:05;98496.72;;;32.10;30.07
60589;BME280;46421;48.610;9.334;2022-07-05T08:48:30;98494.75;;;34.01;27.50
60589;BME280;46421;48.610;9.334;2022-07-05T08:50:56;98493.94;;;34.00;28.52
60589;BME280;46421;48.610;9.334;2022-07-05T08:53:21;98492.38;;;35.05;26.43
60589;BME280;46421;48.610;9.334;2022-07-05T08:55:47;98487.03;;;34.38;27.39
60589;BME280;46421;48.610;9.334;2022-07-05T08:58:13;98494.47;;;31.42;30.10
60589;BME280;46421;48.610;9.334;2022-07-05T09:00:39;98483.75;;;32.38;31.58
60589;BME280;46421;48.610;9.334;2022-07-05T09:03:05;98491.19;;;32.97;28.53
60589;BME280;46421;48.610;9.334;2022-07-05T09:05:36;98486.72;;;32.42;29.13
60589;BME280;46421;48.610;9.334;2022-07-05T09:08:04;98494.84;;;32.47;30.56
60589;BME280;46421;48.610;9.334;2022-07-05T09:10:32;98479.78;;;33.44;28.86
60589;BME280;46421;48.610;9.334;2022-07-05T09:12:57;98487.84;;;34.39;27.69
60589;BME280;46421;48.610;9.334;2022-07-05T09:15:23;98486.13;;;33.45;28.29
60589;BME280;46421;48.610;9.334;2022-07-05T09:17:49;98493.84;;;34.76;29.15
60589;BME280;46421;48.610;9.334;2022-07-05T09:20:16;98496.66;;;35.32;27.50
60589;BME280;46421;48.610;9.334;2022-07-05T09:22:55;98491.69;;;35.25;26.95
60589;BME280;46421;48.610;9.334;2022-07-05T09:25:22;98489.09;;;35.68;25.86
60589;BME280;46421;48.610;9.334;2022-07-05T09:28:00;98490.75;;;34.77;26.10
60589;BME280;46421;48.610;9.334;2022-07-05T09:30:33;98494.75;;;36.10;28.04
60589;BME280;46421;48.610;9.334;2022-07-05T09:33:14;98493.97;;;37.07;24.67
60589;BME280;46421;48.610;9.334;2022-07-05T09:35:51;98477.28;;;34.23;27.44
60589;BME280;46421;48.610;9.334;2022-07-05T09:38:19;98478.78;;;34.47;28.11
60589;BME280;46421;48.610;9.334;2022-07-05T09:40:50;98483.59;;;34.15;27.61
60589;BME280;46421;48.610;9.334;2022-07-05T09:43:20;98488.31;;;35.11;27.81
60589;BME280;46421;48.610;9.334;2022-07-05T09:45:59;98501.97;;;34.72;24.50
60589;BME280;46421;48.610;9.334;2022-07-05T09:48:27;98494.53;;;34.55;27.74
60589;BME280;46421;48.610;9.334;2022-07-05T09:50:52;98497.22;;;36.54;25.09
60589;BME280;46421;48.610;9.334;2022-07-05T09:53:44;98494.28;;;36.71;21.62
60589;BME280;46421;48.610;9.334;2022-07-05T09:56:09;98493.84;;;35.97;23.32
60589;BME280;46421;48.610;9.334;2022-07-05T09:58:35;98494.41;;;36.33;22.39
60589;BME280;46421;48.610;9.334;2022-07-05T10:01:00;98491.84;;;35.68;21.58
60589;BME280;46421;48.610;9.334;2022-07-05T10:03:25;98484.81;;;32.14;26.83
60589;BME280;46421;48.610;9.334;2022-07-05T10:05:50;98483.75;;;34.80;29.33
60589;BME280;46421;48.610;9.334;2022-07-05T10:08:16;98496.63;;;35.88;25.38
60589;BME280;46421;48.610;9.334;2022-07-05T10:10:45;98490.97;;;36.36;27.39
60589;BME280;46421;48.610;9.334;2022-07-05T10:13:13;98480.91;;;36.10;23.20
60589;BME280;46421;48.610;9.334;2022-07-05T10:15:39;98479.91;;;34.46;23.66
60589;BME280;46421;48.610;9.334;2022-07-05T10:18:11;98482.66;;;36.15;20.87
60589;BME280;46421;48.610;9.334;2022-07-05T10:23:03;98482.72;;;38.11;23.61
60589;BME280;46421;48.610;9.334;2022-07-05T10:25:29;98486.19;;;38.33;19.75
60589;BME280;46421;48.610;9.334;2022-07-05T10:27:55;98479.75;;;37.54;22.34
60589;BME280;46421;48.610;9.334;2022-07-05T10:30:23;98477.72;;;31.72;28.16
60589;BME280;46421;48.610;9.334;2022-07-05T10:32:49;98468.94;;;33.48;24.22
60589;BME280;46421;48.610;9.334;2022-07-05T10:35:18;98475.34;;;31.51;30.12
60589;BME280;46421;48.610;9.334;2022-07-05T10:37:44;98475.75;;;29.58;30.76
60589;BME280;46421;48.610;9.334;2022-07-05T10:40:10;98472.19;;;28.99;32.05
60589;BME280;46421;48.610;9.334;2022-07-05T10:50:59;98464.50;;;33.78;28.58
60589;BME280;46421;48.610;9.334;2022-07-05T10:58:34;98453.34;;;32.80;27.58
60589;BME280;46421;48.610;9.334;2022-07-05T11:06:07;98464.69;;;36.63;21.30
60589;BME280;46421;48.610;9.334;2022-07-05T11:11:25;98468.19;;;36.72;21.59
60589;BME280;46421;48.610;9.334;2022-07-05T11:13:51;98469.41;;;37.30;21.59
60589;BME280;46421;48.610;9.334;2022-07-05T11:16:20;98474.56;;;37.65;20.58
60589;BME280;46421;48.610;9.334;2022-07-05T11:18:46;98471.56;;;35.07;24.43
60589;BME280;46421;48.610;9.334;2022-07-05T11:21:21;98469.19;;;30.79;32.22
60589;BME280;46421;48.610;9.334;2022-07-05T11:23:47;98465.06;;;31.57;30.21
60589;BME280;46421;48.610;9.334;2022-07-05T11:26:16;98470.63;;;34.59;24.32
60589;BME280;46421;48.610;9.334;2022-07-05T11:28:44;98471.56;;;35.16;21.83
60589;BME280;46421;48.610;9.334;2022-07-05T11:31:10;98471.22;;;35.95;23.19
60589;BME280;46421;48.610;9.334;2022-07-05T11:33:41;98462.13;;;31.81;28.69
60589;BME280;46421;48.610;9.334;2022-07-05T11:36:20;98457.56;;;32.41;28.79
60589;BME280;46421;48.610;9.334;2022-07-05T11:39:09;98456.50;;;34.34;23.16
60589;BME280;46421;48.610;9.334;2022-07-05T11:41:37;98454.84;;;35.51;22.68
60589;BME280;46421;48.610;9.334;2022-07-05T11:44:02;98461.28;;;36.03;22.82
60589;BME280;46421;48.610;9.334;2022-07-05T11:46:27;98459.78;;;36.27;24.28
60589;BME280;46421;48.610;9.334;2022-07-05T11:48:53;98459.28;;;35.35;23.09
60589;BME280;46421;48.610;9.334;2022-07-05T11:51:19;98458.09;;;35.06;23.69
60589;BME280;46421;48.610;9.334;2022-07-05T11:53:44;98455.09;;;33.79;25.82
60589;BME280;46421;48.610;9.334;2022-07-05T11:56:10;98452.47;;;35.41;23.53
60589;BME280;46421;48.610;9.334;2022-07-05T11:58:35;98445.09;;;36.35;22.34
60589;BME280;46421;48.610;9.334;2022-07-05T12:01:00;98442.94;;;35.21;23.50
60589;BME280;46421;48.610;9.334;2022-07-05T12:03:26;98438.84;;;35.27;19.57
60589;BME280;46421;48.610;9.334;2022-07-05T12:05:51;98435.84;;;34.84;21.21
60589;BME280;46421;48.610;9.334;2022-07-05T12:08:23;98441.84;;;34.95;23.18
60589;BME280;46421;48.610;9.334;2022-07-05T12:10:49;98429.88;;;34.65;24.32
60589;BME280;46421;48.610;9.334;2022-07-05T12:13:15;98437.13;;;35.52;23.48
60589;BME280;46421;48.610;9.334;2022-07-05T12:15:40;98426.88;;;33.65;24.28
60589;BME280;46421;48.610;9.334;2022-07-05T12:18:07;98425.84;;;34.45;22.36
60589;BME280;46421;48.610;9.334;2022-07-05T12:20:35;98419.84;;;34.08;23.28
60589;BME280;46421;48.610;9.334;2022-07-05T12:23:00;98430.53;;;34.09;24.65
60589;BME280;46421;48.610;9.334;2022-07-05T12:25:28;98427.28;;;33.89;22.56
60589;BME280;46421;48.610;9.334;2022-07-05T12:27:55;98423.22;;;34.31;26.63
60589;BME280;46421;48.610;9.334;2022-07-05T12:30:21;98419.00;;;34.33;22.01
60589;BME280;46421;48.610;9.334;2022-07-05T12:35:38;98422.63;;;35.17;20.19
60589;BME280;46421;48.610;9.334;2022-07-05T12:38:09;98417.53;;;34.01;23.85
60589;BME280;46421;48.610;9.334;2022-07-05T12:40:39;98420.00;;;32.82;26.39
60589;BME280;46421;48.610;9.334;2022-07-05T12:43:12;98410.81;;;32.86;24.97
60589;BME280;46421;48.610;9.334;2022-07-05T12:45:39;98406.75;;;32.84;26.93
60589;BME280;46421;48.610;9.334;2022-07-05T12:48:07;98413.22;;;33.60;21.33
60589;BME280;46421;48.610;9.334;2022-07-05T12:50:51;98413.66;;;34.11;23.64
60589;BME280;46421;48.610;9.334;2022-07-05T12:53:18;98422.56;;;34.16;23.91
60589;BME280;46421;48.610;9.334;2022-07-05T12:55:43;98420.66;;;34.52;21.88
60589;BME280;46421;48.610;9.334;2022-07-05T12:58:08;98409.78;;;34.56;24.09
60589;BME280;46421;48.610;9.334;2022-07-05T13:00:34;98412.69;;;34.33;23.87
60589;BME280;46421;48.610;9.334;2022-07-05T13:02:59;98409.53;;;33.73;25.89
60589;BME280;46421;48.610;9.334;2022-07-05T13:05:25;98410.63;;;33.54;25.43
60589;BME280;46421;48.610;9.334;2022-07-05T13:07:51;98414.09;;;33.78;22.78
60589;BME280;46421;48.610;9.334;2022-07-05T13:10:25;98413.41;;;32.91;24.19
60589;BME280;46421;48.610;9.334;2022-07-05T13:12:50;98413.00;;;31.37;25.52
60589;BME280;46421;48.610;9.334;2022-07-05T13:15:16;98411.88;;;32.17;25.00
60589;BME280;46421;48.610;9.334;2022-07-05T13:17:42;98408.47;;;32.79;24.44
60589;BME280;46421;48.610;9.334;2022-07-05T13:20:09;98411.78;;;32.45;26.85
60589;BME280;46421;48.610;9.334;2022-07-05T13:22:34;98408.03;;;33.18;24.90
60589;BME280;46421;48.610;9.334;2022-07-05T13:25:00;98411.22;;;33.34;25.69